createdAt,value
2024-01-09T00:00:45.271Z,10.80
2024-01-09T00:01:45.695Z,10.40
2024-01-09T00:02:45.948Z,10.80
2024-01-09T00:03:46.277Z,10.50
2024-01-09T00:04:46.491Z,10.90
2024-01-09T00:05:46.773Z,11.00
2024-01-09T00:06:47.287Z,10.50
2024-01-09T00:07:47.367Z,11.10
2024-01-09T00:08:47.692Z,10.90
2024-01-09T00:09:47.918Z,11.20
2024-01-09T00:10:48.275Z,10.60
2024-01-09T00:11:48.654Z,9.70
2024-01-09T00:12:48.818Z,10.70
2024-01-09T00:13:49.065Z,10.70
2024-01-09T00:14:49.545Z,10.00
2024-01-09T00:15:49.765Z,10.60
2024-01-09T00:16:49.987Z,9.90
2024-01-09T00:17:50.256Z,10.40
2024-01-09T00:18:50.561Z,11.10
2024-01-09T00:19:50.913Z,10.30
2024-01-09T00:20:51.137Z,10.80
2024-01-09T00:21:51.365Z,10.40
2024-01-09T00:22:51.611Z,11.20
2024-01-09T00:23:51.994Z,10.70
2024-01-09T00:24:52.161Z,10.60
2024-01-09T00:25:52.930Z,11.10
2024-01-09T00:26:52.884Z,11.30
2024-01-09T00:27:53.054Z,10.60
2024-01-09T00:28:53.447Z,10.70
2024-01-09T00:29:53.753Z,10.40
2024-01-09T00:30:54.104Z,11.60
2024-01-09T00:31:54.328Z,11.30
2024-01-09T00:32:54.883Z,11.50
2024-01-09T00:33:54.982Z,11.40
2024-01-09T00:34:55.248Z,10.80
2024-01-09T00:35:55.468Z,10.90
2024-01-09T00:36:55.682Z,11.10
2024-01-09T00:37:56.030Z,10.80
2024-01-09T00:38:56.306Z,10.60
2024-01-09T00:39:56.527Z,10.90
2024-01-09T00:40:56.831Z,11.00
2024-01-09T00:41:57.220Z,10.70
2024-01-09T00:42:57.448Z,11.20
2024-01-09T00:43:57.745Z,10.70
2024-01-09T00:44:58.012Z,10.50
2024-01-09T00:45:58.208Z,10.30
2024-01-09T00:46:58.564Z,10.80
2024-01-09T00:47:59.061Z,10.40
2024-01-09T00:48:59.380Z,10.90
2024-01-09T00:49:59.432Z,10.70
2024-01-09T00:50:59.919Z,10.20
2024-01-09T00:52:00.071Z,10.60
2024-01-09T00:53:00.319Z,10.10
2024-01-09T00:54:00.516Z,10.10
2024-01-09T00:55:00.787Z,9.80
2024-01-09T00:56:01.005Z,10.10
2024-01-09T00:57:01.270Z,10.10
2024-01-09T00:58:01.499Z,10.10
2024-01-09T00:59:01.688Z,9.60
2024-01-09T01:00:02.013Z,10.60
2024-01-09T01:01:02.362Z,11.00
2024-01-09T01:02:02.666Z,10.60
2024-01-09T01:03:02.872Z,10.20
2024-01-09T01:04:03.326Z,10.00
2024-01-09T01:05:03.536Z,10.60
2024-01-09T01:06:03.825Z,10.70
2024-01-09T01:07:04.103Z,10.50
2024-01-09T01:08:04.348Z,10.50
2024-01-09T01:09:04.584Z,10.10
2024-01-09T01:10:04.850Z,9.40
2024-01-09T01:11:05.300Z,9.90
2024-01-09T01:12:05.461Z,9.10
2024-01-09T01:13:05.647Z,10.50
2024-01-09T01:14:06.017Z,10.70
2024-01-09T01:15:06.176Z,10.70
2024-01-09T01:16:06.398Z,10.50
2024-01-09T01:17:06.647Z,10.00
2024-01-09T01:18:06.955Z,10.10
2024-01-09T01:19:07.136Z,10.20
2024-01-09T01:20:07.552Z,10.80
2024-01-09T01:21:07.853Z,9.80
2024-01-09T01:22:08.025Z,10.00
2024-01-09T01:23:08.365Z,9.80
2024-01-09T01:24:08.739Z,10.00
2024-01-09T01:25:08.924Z,9.30
2024-01-09T01:26:09.317Z,9.00
2024-01-09T01:27:09.483Z,9.40
2024-01-09T01:28:09.829Z,9.70
2024-01-09T01:29:10.164Z,10.30
2024-01-09T01:30:10.524Z,9.70
2024-01-09T01:31:10.750Z,10.10
2024-01-09T01:32:11.016Z,9.80
2024-01-09T01:33:11.431Z,9.80
2024-01-09T01:34:11.727Z,9.90
2024-01-09T01:35:11.909Z,9.50
2024-01-09T01:36:12.284Z,9.90
2024-01-09T01:37:12.482Z,11.10
2024-01-09T01:38:12.754Z,10.60
2024-01-09T01:39:13.016Z,10.30
2024-01-09T01:40:13.203Z,10.00
2024-01-09T01:41:13.547Z,9.80
2024-01-09T01:42:13.750Z,11.00
2024-01-09T01:43:14.085Z,10.50
2024-01-09T01:44:14.522Z,10.00
2024-01-09T01:45:14.742Z,10.20
2024-01-09T01:46:15.070Z,10.20
2024-01-09T01:47:15.310Z,10.40
2024-01-09T01:48:15.647Z,10.00
2024-01-09T01:49:15.935Z,10.70
2024-01-09T01:50:16.235Z,10.60
2024-01-09T01:51:16.443Z,10.60
2024-01-09T01:52:16.758Z,10.20
2024-01-09T01:53:17.104Z,11.00
2024-01-09T01:54:17.259Z,10.30
2024-01-09T01:55:17.591Z,10.40
2024-01-09T01:56:18.003Z,10.60
2024-01-09T01:57:18.272Z,10.60
2024-01-09T01:58:18.516Z,10.00
2024-01-09T01:59:18.746Z,10.30
2024-01-09T02:00:18.976Z,10.50
2024-01-09T02:01:19.220Z,10.60
2024-01-09T02:02:19.639Z,10.40
2024-01-09T02:03:19.881Z,10.30
2024-01-09T02:04:20.179Z,10.60
2024-01-09T02:05:20.466Z,10.20
2024-01-09T02:06:20.738Z,9.60
2024-01-09T02:07:20.971Z,10.00
2024-01-09T02:08:21.300Z,10.20
2024-01-09T02:09:21.486Z,9.90
2024-01-09T02:10:21.859Z,10.30
2024-01-09T02:11:22.132Z,9.90
2024-01-09T02:12:22.320Z,11.30
2024-01-09T02:13:22.578Z,9.30
2024-01-09T02:14:22.909Z,10.80
2024-01-09T02:15:23.189Z,10.40
2024-01-09T02:16:23.509Z,10.50
2024-01-09T02:17:23.856Z,10.70
2024-01-09T02:18:24.256Z,10.30
2024-01-09T02:19:24.345Z,10.10
2024-01-09T02:20:24.716Z,10.90
2024-01-09T02:21:24.931Z,11.20
2024-01-09T02:22:25.157Z,11.00
2024-01-09T02:23:25.516Z,11.50
2024-01-09T02:24:25.908Z,11.40
2024-01-09T02:25:26.101Z,10.70
2024-01-09T02:26:40.438Z,10.90
2024-01-09T02:27:27.801Z,11.20
2024-01-09T02:28:27.062Z,11.40
2024-01-09T02:29:27.306Z,11.00
2024-01-09T02:30:27.568Z,11.20
2024-01-09T02:31:27.773Z,11.90
2024-01-09T02:32:28.193Z,10.80
2024-01-09T02:33:28.516Z,11.20
2024-01-09T02:34:28.922Z,10.70
2024-01-09T02:35:29.103Z,11.10
2024-01-09T02:36:29.293Z,10.20
2024-01-09T02:37:29.540Z,10.60
2024-01-09T02:38:29.907Z,10.70
2024-01-09T02:39:30.218Z,10.70
2024-01-09T02:40:30.422Z,10.20
2024-01-09T02:41:30.841Z,9.70
2024-01-09T02:42:31.084Z,9.80
2024-01-09T02:43:31.409Z,9.70
2024-01-09T02:44:31.864Z,9.80
2024-01-09T02:45:32.033Z,10.50
2024-01-09T02:46:32.401Z,9.10
2024-01-09T02:47:32.685Z,9.30
2024-01-09T02:48:33.051Z,9.10
2024-01-09T02:49:33.298Z,9.30
2024-01-09T02:50:33.528Z,9.70
2024-01-09T02:51:33.802Z,9.50
2024-01-09T02:52:34.118Z,10.00
2024-01-09T02:53:34.544Z,8.80
2024-01-09T02:54:34.714Z,9.90
2024-01-09T02:55:34.987Z,9.40
2024-01-09T02:56:35.358Z,9.10
2024-01-09T02:57:35.664Z,9.90
2024-01-09T02:58:35.905Z,9.90
2024-01-09T02:59:36.205Z,9.70
2024-01-09T03:00:36.439Z,9.90
2024-01-09T03:01:36.707Z,9.50
2024-01-09T03:02:37.081Z,9.20
2024-01-09T03:03:37.270Z,10.30
2024-01-09T03:04:37.501Z,9.20
2024-01-09T03:05:37.906Z,9.50
2024-01-09T03:06:38.319Z,9.40
2024-01-09T03:07:38.548Z,9.90
2024-01-09T03:08:38.758Z,9.80
2024-01-09T03:09:39.048Z,9.70
2024-01-09T03:10:39.418Z,8.70
2024-01-09T03:11:39.820Z,10.30
2024-01-09T03:12:40.029Z,10.20
2024-01-09T03:13:40.258Z,10.00
2024-01-09T03:14:40.623Z,10.20
2024-01-09T03:15:40.928Z,9.60
2024-01-09T03:16:41.334Z,9.50
2024-01-09T03:17:41.669Z,9.70
2024-01-09T03:18:41.927Z,10.20
2024-01-09T03:19:42.144Z,10.60
2024-01-09T03:20:42.533Z,10.60
2024-01-09T03:21:42.785Z,9.70
2024-01-09T03:22:43.093Z,9.40
2024-01-09T03:23:43.475Z,10.40
2024-01-09T03:24:43.683Z,9.90
2024-01-09T03:25:44.041Z,9.10
2024-01-09T03:26:44.441Z,9.30
2024-01-09T03:27:44.625Z,10.10
2024-01-09T03:28:44.853Z,9.30
2024-01-09T03:29:45.150Z,9.70
2024-01-09T03:30:45.456Z,10.30
2024-01-09T03:31:45.641Z,10.10
2024-01-09T03:32:46.055Z,9.70
2024-01-09T03:33:46.296Z,11.00
2024-01-09T03:34:46.509Z,10.20
2024-01-09T03:35:47.009Z,10.20
2024-01-09T03:36:47.169Z,10.80
2024-01-09T03:37:47.487Z,10.30
2024-01-09T03:38:48.044Z,9.90
2024-01-09T03:39:48.179Z,9.20
2024-01-09T03:40:48.334Z,10.00
2024-01-09T03:41:48.836Z,9.90
2024-01-09T03:42:49.020Z,10.30
2024-01-09T03:43:49.350Z,10.00
2024-01-09T03:44:49.748Z,10.40
2024-01-09T03:45:49.827Z,10.20
2024-01-09T03:46:50.077Z,11.10
2024-01-09T03:47:50.510Z,10.70
2024-01-09T03:48:50.723Z,10.20
2024-01-09T03:49:51.110Z,10.00
2024-01-09T03:50:51.443Z,11.20
2024-01-09T03:51:51.546Z,11.00
2024-01-09T03:52:51.878Z,10.80
2024-01-09T03:53:52.239Z,10.20
2024-01-09T03:54:52.484Z,10.10
2024-01-09T03:55:52.817Z,10.70
2024-01-09T03:56:53.140Z,10.00
2024-01-09T03:57:53.315Z,10.00
2024-01-09T03:58:53.570Z,10.60
2024-01-09T03:59:53.797Z,10.10
2024-01-09T04:00:54.044Z,10.50
2024-01-09T04:01:54.375Z,10.80
2024-01-09T04:02:54.638Z,10.90
2024-01-09T04:03:55.061Z,11.30
2024-01-09T04:04:55.164Z,11.30
2024-01-09T04:05:55.500Z,11.10
2024-01-09T04:06:55.718Z,11.80
2024-01-09T04:07:56.055Z,12.10
2024-01-09T04:08:56.242Z,10.50
2024-01-09T04:09:56.471Z,11.30
2024-01-09T04:10:56.697Z,11.20
2024-01-09T04:11:56.999Z,11.60
2024-01-09T04:12:57.231Z,11.30
2024-01-09T04:13:57.442Z,11.00
2024-01-09T04:14:57.777Z,10.70
2024-01-09T04:15:58.128Z,11.30
2024-01-09T04:16:58.384Z,10.10
2024-01-09T04:17:58.692Z,11.00
2024-01-09T04:18:58.925Z,11.50
2024-01-09T04:19:59.179Z,11.60
2024-01-09T04:20:59.478Z,11.90
2024-01-09T04:21:59.672Z,11.20
2024-01-09T04:22:59.988Z,11.20
2024-01-09T04:24:00.354Z,11.50
2024-01-09T04:25:00.604Z,11.40
2024-01-09T04:26:00.838Z,11.10
2024-01-09T04:27:01.207Z,11.90
2024-01-09T04:28:01.447Z,11.90
2024-01-09T04:29:01.667Z,11.40
2024-01-09T04:30:02.026Z,11.10
2024-01-09T04:31:02.380Z,10.70
2024-01-09T04:32:02.628Z,11.20
2024-01-09T04:33:02.966Z,10.50
2024-01-09T04:34:03.170Z,11.40
2024-01-09T04:35:03.302Z,11.40
2024-01-09T04:36:03.566Z,10.60
2024-01-09T04:37:03.832Z,11.10
2024-01-09T04:38:04.008Z,10.10
2024-01-09T04:39:04.258Z,11.20
2024-01-09T04:40:04.474Z,11.20
2024-01-09T04:41:04.875Z,11.40
2024-01-09T04:42:05.082Z,11.20
2024-01-09T04:43:05.298Z,11.50
2024-01-09T04:44:05.633Z,10.60
2024-01-09T04:45:06.117Z,10.90
2024-01-09T04:46:06.312Z,10.90
2024-01-09T04:47:06.628Z,11.80
2024-01-09T04:48:07.070Z,12.00
2024-01-09T04:49:07.284Z,11.40
2024-01-09T04:50:07.500Z,10.40
2024-01-09T04:51:07.791Z,11.10
2024-01-09T04:52:08.042Z,11.90
2024-01-09T04:53:08.249Z,10.20
2024-01-09T04:54:08.476Z,10.60
2024-01-09T04:55:08.735Z,10.70
2024-01-09T04:56:09.018Z,10.40
2024-01-09T04:57:09.338Z,11.00
2024-01-09T04:58:09.587Z,10.90
2024-01-09T04:59:09.901Z,10.90
2024-01-09T05:00:10.130Z,10.90
2024-01-09T05:01:10.372Z,12.00
2024-01-09T05:02:10.650Z,10.90
2024-01-09T05:03:11.003Z,10.80
2024-01-09T05:04:11.166Z,11.40
2024-01-09T05:05:11.434Z,11.20
2024-01-09T05:06:11.750Z,11.20
2024-01-09T05:07:11.954Z,11.00
2024-01-09T05:08:12.320Z,11.00
2024-01-09T05:09:12.537Z,10.80
2024-01-09T05:10:12.859Z,10.80
2024-01-09T05:11:15.041Z,10.20
2024-01-09T05:12:13.456Z,10.30
2024-01-09T05:13:13.718Z,10.80
2024-01-09T05:14:13.941Z,11.10
2024-01-09T05:15:14.247Z,11.00
2024-01-09T05:16:14.596Z,11.40
2024-01-09T05:17:14.996Z,10.80
2024-01-09T05:18:15.282Z,10.80
2024-01-09T05:19:15.597Z,10.10
2024-01-09T05:20:15.908Z,10.70
2024-01-09T05:21:16.087Z,10.60
2024-01-09T05:22:16.444Z,11.60
2024-01-09T05:23:16.707Z,11.10
2024-01-09T05:24:16.955Z,11.60
2024-01-09T05:25:17.230Z,10.80
2024-01-09T05:26:19.267Z,10.20
2024-01-09T05:27:17.663Z,10.90
2024-01-09T05:28:17.890Z,11.30
2024-01-09T05:29:18.316Z,10.60
2024-01-09T05:30:18.627Z,11.00
2024-01-09T05:31:18.822Z,11.10
2024-01-09T05:32:19.212Z,12.30
2024-01-09T05:33:19.513Z,11.00
2024-01-09T05:34:19.813Z,11.40
2024-01-09T05:35:20.020Z,11.90
2024-01-09T05:36:20.385Z,11.00
2024-01-09T05:37:22.355Z,11.40
2024-01-09T05:38:20.998Z,11.80
2024-01-09T05:39:21.190Z,10.90
2024-01-09T05:40:21.404Z,10.40
2024-01-09T05:41:21.800Z,10.70
2024-01-09T05:42:22.064Z,11.40
2024-01-09T05:43:22.233Z,11.60
2024-01-09T05:44:22.550Z,11.10
2024-01-09T05:45:22.732Z,11.40
2024-01-09T05:46:23.110Z,12.40
2024-01-09T05:47:23.348Z,13.50
2024-01-09T05:48:23.773Z,13.20
2024-01-09T05:49:23.922Z,12.60
2024-01-09T05:50:24.164Z,12.50
2024-01-09T05:51:24.386Z,12.50
2024-01-09T05:52:24.648Z,11.80
2024-01-09T05:53:24.847Z,11.50
2024-01-09T05:54:25.219Z,12.00
2024-01-09T05:55:25.520Z,11.40
2024-01-09T05:56:25.882Z,12.40
2024-01-09T05:57:26.093Z,11.40
2024-01-09T05:58:26.340Z,12.40
2024-01-09T05:59:26.755Z,12.10
2024-01-09T06:00:26.961Z,12.00
2024-01-09T06:01:27.238Z,11.70
2024-01-09T06:02:27.483Z,12.00
2024-01-09T06:03:27.743Z,12.30
2024-01-09T06:04:28.074Z,12.30
2024-01-09T06:05:28.350Z,13.70
2024-01-09T06:06:28.725Z,13.10
2024-01-09T06:07:29.040Z,12.90
2024-01-09T06:08:29.271Z,13.90
2024-01-09T06:09:29.494Z,12.80
2024-01-09T06:10:29.737Z,13.90
2024-01-09T06:11:29.989Z,13.90
2024-01-09T06:12:30.185Z,13.20
2024-01-09T06:13:30.449Z,12.40
2024-01-09T06:14:30.819Z,14.20
2024-01-09T06:15:30.863Z,13.40
2024-01-09T06:16:31.130Z,13.50
2024-01-09T06:17:31.581Z,14.30
2024-01-09T06:18:31.923Z,14.90
2024-01-09T06:19:32.198Z,15.50
2024-01-09T06:20:32.406Z,15.60
2024-01-09T06:21:32.733Z,14.50
2024-01-09T06:22:32.967Z,14.20
2024-01-09T06:23:33.345Z,13.30
2024-01-09T06:24:33.628Z,12.60
2024-01-09T06:25:33.925Z,13.20
2024-01-09T06:26:34.258Z,13.30
2024-01-09T06:27:34.484Z,13.60
2024-01-09T06:28:34.908Z,13.10
2024-01-09T06:29:35.102Z,13.60
2024-01-09T06:30:35.536Z,12.60
2024-01-09T06:31:35.599Z,14.10
2024-01-09T06:32:35.913Z,13.80
2024-01-09T06:33:36.165Z,13.60
2024-01-09T06:34:36.420Z,14.10
2024-01-09T06:35:36.725Z,14.00
2024-01-09T06:36:36.917Z,13.00
2024-01-09T06:37:37.203Z,12.40
2024-01-09T06:38:37.423Z,12.50
2024-01-09T06:39:37.744Z,12.70
2024-01-09T06:42:03.128Z,13.10
2024-01-09T06:42:54.675Z,12.90
2024-01-09T06:43:54.904Z,14.10
2024-01-09T06:44:55.333Z,15.50
2024-01-09T06:45:55.575Z,16.10
2024-01-09T06:46:55.782Z,13.80
2024-01-09T06:47:56.103Z,14.50
2024-01-09T06:48:56.509Z,13.80
2024-01-09T06:49:56.647Z,12.40
2024-01-09T06:50:56.927Z,13.70
2024-01-09T06:51:57.125Z,14.70
2024-01-09T06:52:57.391Z,16.10
2024-01-09T06:53:57.717Z,15.40
2024-01-09T06:54:58.043Z,13.30
2024-01-09T06:55:58.394Z,12.80
2024-01-09T06:56:58.756Z,13.60
2024-01-09T06:57:59.000Z,12.90
2024-01-09T06:58:59.191Z,12.80
2024-01-09T06:59:59.493Z,13.50
2024-01-09T07:00:59.762Z,13.40
2024-01-09T07:02:00.011Z,13.20
2024-01-09T07:03:00.250Z,13.30
2024-01-09T07:04:00.544Z,12.60
2024-01-09T07:05:00.924Z,13.10
2024-01-09T07:06:01.075Z,13.50
2024-01-09T07:07:01.314Z,13.80
2024-01-09T07:08:01.568Z,13.00
2024-01-09T07:09:01.862Z,14.00
2024-01-09T07:10:02.119Z,13.10
2024-01-09T07:11:02.374Z,13.20
2024-01-09T07:12:02.764Z,12.40
2024-01-09T07:13:02.903Z,14.00
2024-01-09T07:14:03.141Z,12.60
2024-01-09T07:15:03.491Z,12.90
2024-01-09T07:16:03.624Z,13.00
2024-01-09T07:17:03.916Z,13.60
2024-01-09T07:18:04.221Z,14.00
2024-01-09T07:19:04.642Z,14.60
2024-01-09T07:20:04.722Z,13.60
2024-01-09T07:21:05.027Z,14.00
2024-01-09T07:22:05.219Z,13.20
2024-01-09T07:23:14.182Z,13.30
2024-01-09T07:24:06.781Z,13.00
2024-01-09T07:25:06.084Z,13.30
2024-01-09T07:26:06.314Z,13.30
2024-01-09T07:27:06.581Z,13.30
2024-01-09T07:28:06.906Z,13.00
2024-01-09T07:29:07.138Z,13.30
2024-01-09T07:30:07.412Z,13.20
2024-01-09T07:31:07.697Z,14.90
2024-01-09T07:32:07.929Z,14.00
2024-01-09T07:33:08.290Z,13.50
2024-01-09T07:34:08.573Z,13.60
2024-01-09T07:35:08.762Z,13.70
2024-01-09T07:36:09.008Z,13.90
2024-01-09T07:37:09.264Z,12.70
2024-01-09T07:38:09.511Z,12.90
2024-01-09T07:39:09.777Z,13.90
2024-01-09T07:40:10.025Z,13.10
2024-01-09T07:41:10.328Z,14.10
2024-01-09T07:42:10.552Z,13.20
2024-01-09T07:43:10.923Z,13.20
2024-01-09T07:44:11.204Z,13.80
2024-01-09T07:45:11.492Z,12.70
2024-01-09T07:46:11.730Z,13.10
2024-01-09T07:47:12.045Z,14.00
2024-01-09T07:48:12.350Z,13.50
2024-01-09T07:49:12.873Z,13.60
2024-01-09T07:50:12.881Z,14.30
2024-01-09T07:51:13.110Z,12.60
2024-01-09T07:52:13.409Z,12.70
2024-01-09T07:53:13.675Z,13.80
2024-01-09T07:54:13.893Z,12.90
2024-01-09T07:55:14.270Z,13.70
2024-01-09T07:56:14.413Z,13.90
2024-01-09T07:57:21.860Z,13.30
2024-01-09T07:58:15.872Z,13.60
2024-01-09T07:59:15.230Z,14.10
2024-01-09T08:00:15.497Z,13.50
2024-01-09T08:01:15.826Z,13.80
2024-01-09T08:02:16.265Z,13.90
2024-01-09T08:03:19.823Z,14.40
2024-01-09T08:04:17.639Z,13.50
2024-01-09T08:05:16.966Z,15.60
2024-01-09T08:06:17.311Z,14.90
2024-01-09T08:07:17.491Z,15.00
2024-01-09T08:08:17.925Z,15.70
2024-01-09T08:09:18.141Z,17.00
2024-01-09T08:10:18.435Z,17.70
2024-01-09T08:11:18.752Z,16.90
2024-01-09T08:12:19.010Z,15.90
2024-01-09T08:13:19.578Z,16.00
2024-01-09T08:15:38.653Z,17.00
2024-01-09T08:16:38.790Z,17.30
2024-01-09T08:17:39.022Z,17.20
2024-01-09T08:18:39.583Z,17.00
2024-01-09T08:19:39.676Z,16.60
2024-01-09T08:20:40.162Z,17.10
2024-01-09T08:21:42.890Z,16.90
2024-01-09T08:22:40.366Z,16.60
2024-01-09T08:23:40.613Z,18.00
2024-01-09T08:24:40.877Z,18.60
2024-01-09T08:25:41.215Z,20.80
2024-01-09T08:26:41.513Z,19.80
2024-01-09T08:27:41.787Z,19.90
2024-01-09T08:28:42.060Z,21.10
2024-01-09T08:29:42.364Z,21.60
2024-01-09T08:30:42.660Z,21.90
2024-01-09T08:31:42.862Z,22.50
2024-01-09T08:32:43.345Z,23.80
2024-01-09T08:33:44.332Z,23.20
2024-01-09T08:34:44.004Z,23.00
2024-01-09T08:35:44.196Z,24.70
2024-01-09T08:36:44.558Z,25.30
2024-01-09T08:37:44.728Z,26.10
2024-01-09T08:38:45.061Z,26.80
2024-01-09T08:39:45.288Z,27.40
2024-01-09T08:40:46.681Z,26.80
2024-01-09T08:41:45.840Z,27.20
2024-01-09T08:42:46.105Z,27.40
2024-01-09T08:43:47.382Z,28.30
2024-01-09T08:44:47.738Z,26.40
2024-01-09T08:45:47.052Z,23.80
2024-01-09T08:46:47.329Z,22.80
2024-01-09T08:47:47.705Z,23.60
2024-01-09T08:48:48.016Z,22.50
2024-01-09T08:49:48.327Z,21.60
2024-01-09T08:50:49.010Z,21.50
2024-01-09T08:51:48.927Z,20.50
2024-01-09T08:52:49.160Z,20.80
2024-01-09T08:53:49.401Z,19.60
2024-01-09T08:54:49.699Z,19.50
2024-01-09T08:55:50.021Z,18.90
2024-01-09T08:56:50.336Z,19.80
2024-01-09T08:57:50.569Z,19.10
2024-01-09T08:58:50.870Z,18.90
2024-01-09T08:59:51.108Z,19.40
2024-01-09T09:00:51.432Z,18.80
2024-01-09T09:01:51.733Z,18.00
2024-01-09T09:02:52.121Z,18.40
2024-01-09T09:03:52.392Z,17.80
2024-01-09T09:04:52.508Z,18.70
2024-01-09T09:05:52.875Z,18.50
2024-01-09T09:06:53.209Z,19.20
2024-01-09T09:07:53.348Z,18.00
2024-01-09T09:08:53.760Z,26.90
2024-01-09T09:09:53.899Z,35.70
2024-01-09T09:10:54.180Z,52.60
2024-01-09T09:11:54.503Z,50.90
2024-01-09T09:12:54.763Z,36.50
2024-01-09T09:13:54.998Z,24.40
2024-01-09T09:14:55.391Z,21.00
2024-01-09T09:15:55.607Z,21.60
2024-01-09T09:16:55.887Z,22.30
2024-01-09T09:17:56.420Z,24.60
2024-01-09T09:18:56.468Z,24.80
2024-01-09T09:19:56.746Z,23.20
2024-01-09T09:20:57.056Z,21.30
2024-01-09T09:21:57.311Z,20.70
2024-01-09T09:22:57.615Z,20.60
2024-01-09T09:23:57.963Z,19.40
2024-01-09T09:24:58.267Z,20.30
2024-01-09T09:25:58.594Z,20.20
2024-01-09T09:26:58.990Z,19.20
2024-01-09T09:27:59.119Z,19.40
2024-01-09T09:29:15.793Z,18.30
2024-01-09T09:30:00.767Z,18.40
2024-01-09T09:31:00.147Z,18.80
2024-01-09T09:32:00.321Z,18.50
2024-01-09T09:33:00.779Z,18.00
2024-01-09T09:34:01.094Z,17.50
2024-01-09T09:35:01.241Z,18.10
2024-01-09T09:36:01.405Z,18.50
2024-01-09T09:37:01.626Z,18.50
2024-01-09T09:38:01.914Z,18.20
2024-01-09T09:39:02.266Z,17.10
2024-01-09T09:40:02.392Z,18.30
2024-01-09T09:41:02.672Z,17.20
2024-01-09T09:42:02.996Z,18.20
2024-01-09T09:43:03.228Z,17.70
2024-01-09T09:44:03.465Z,18.00
2024-01-09T09:45:03.891Z,17.60
2024-01-09T09:46:06.460Z,18.00
2024-01-09T09:47:04.343Z,17.00
2024-01-09T09:48:04.737Z,18.40
2024-01-09T09:49:05.149Z,17.80
2024-01-09T09:50:06.107Z,17.70
2024-01-09T09:51:05.576Z,16.30
2024-01-09T09:52:05.700Z,17.70
2024-01-09T09:53:05.982Z,17.50
2024-01-09T09:54:07.115Z,17.30
2024-01-09T09:55:06.524Z,17.80
2024-01-09T09:56:06.816Z,17.50
2024-01-09T09:57:07.250Z,18.30
2024-01-09T09:58:07.341Z,17.50
2024-01-09T09:59:07.612Z,17.70
2024-01-09T10:00:07.925Z,18.60
2024-01-09T10:01:08.255Z,18.70
2024-01-09T10:02:08.461Z,18.30
2024-01-09T10:03:08.824Z,20.80
2024-01-09T10:04:09.161Z,20.10
2024-01-09T10:05:09.409Z,19.80
2024-01-09T10:06:09.863Z,18.30
2024-01-09T10:07:10.008Z,18.60
2024-01-09T10:08:10.220Z,19.20
2024-01-09T10:09:10.504Z,20.10
2024-01-09T10:10:10.786Z,18.90
2024-01-09T10:11:11.036Z,18.10
2024-01-09T10:12:11.290Z,18.50
2024-01-09T10:13:11.573Z,18.70
2024-01-09T10:14:11.838Z,19.00
2024-01-09T10:15:12.164Z,17.30
2024-01-09T10:16:12.422Z,17.40
2024-01-09T10:17:12.705Z,17.50
2024-01-09T10:18:13.053Z,17.00
2024-01-09T10:19:13.233Z,17.00
2024-01-09T10:20:13.589Z,17.30
2024-01-09T10:21:13.932Z,18.40
2024-01-09T10:22:14.066Z,17.30
2024-01-09T10:23:14.365Z,17.00
2024-01-09T10:24:14.631Z,18.20
2024-01-09T10:25:14.934Z,17.90
2024-01-09T10:26:15.188Z,18.30
2024-01-09T10:27:15.439Z,17.80
2024-01-09T10:28:15.691Z,17.10
2024-01-09T10:29:16.027Z,17.70
2024-01-09T10:30:16.369Z,17.40
2024-01-09T10:31:16.535Z,17.80
2024-01-09T10:32:16.771Z,16.80
2024-01-09T10:33:17.149Z,16.90
2024-01-09T10:34:17.532Z,17.20
2024-01-09T10:35:17.543Z,18.00
2024-01-09T10:36:17.751Z,19.00
2024-01-09T10:37:18.057Z,18.40
2024-01-09T10:38:18.334Z,17.40
2024-01-09T10:39:18.585Z,17.00
2024-01-09T10:40:18.876Z,16.70
2024-01-09T10:41:19.519Z,15.50
2024-01-09T10:42:19.369Z,15.60
2024-01-09T10:43:19.680Z,15.30
2024-01-09T10:44:19.900Z,15.90
2024-01-09T10:45:20.153Z,18.30
2024-01-09T10:46:20.446Z,16.90
2024-01-09T10:47:20.783Z,16.40
2024-01-09T10:48:21.060Z,17.80
2024-01-09T10:49:23.123Z,16.80
2024-01-09T10:50:21.708Z,15.90
2024-01-09T10:51:21.851Z,15.90
2024-01-09T10:52:22.158Z,15.20
2024-01-09T10:53:22.408Z,16.30
2024-01-09T10:54:22.630Z,15.60
2024-01-09T10:55:22.903Z,16.40
2024-01-09T10:56:23.285Z,16.30
2024-01-09T10:57:23.604Z,17.10
2024-01-09T10:58:23.792Z,16.40
2024-01-09T10:59:24.072Z,15.50
2024-01-09T11:00:24.330Z,15.40
2024-01-09T11:01:24.777Z,16.70
2024-01-09T11:02:24.954Z,16.40
2024-01-09T11:03:25.421Z,16.30
2024-01-09T11:04:25.440Z,16.80
2024-01-09T11:05:25.791Z,16.40
2024-01-09T11:06:26.199Z,16.00
2024-01-09T11:07:26.308Z,17.20
2024-01-09T11:08:26.678Z,16.90
2024-01-09T11:09:26.880Z,17.80
2024-01-09T11:10:27.150Z,16.30
2024-01-09T11:11:27.515Z,17.30
2024-01-09T11:12:27.729Z,17.00
2024-01-09T11:13:27.979Z,16.80
2024-01-09T11:14:28.309Z,16.30
2024-01-09T11:15:28.580Z,16.60
2024-01-09T11:16:28.872Z,17.20
2024-01-09T11:17:29.186Z,17.70
2024-01-09T11:18:32.434Z,16.90
2024-01-09T11:19:29.976Z,17.60
2024-01-09T11:20:30.065Z,18.40
2024-01-09T11:21:30.318Z,17.60
2024-01-09T11:22:30.610Z,17.50
2024-01-09T11:23:30.883Z,17.20
2024-01-09T11:24:31.144Z,17.50
2024-01-09T11:25:31.415Z,16.80
2024-01-09T11:26:31.771Z,17.50
2024-01-09T11:27:32.105Z,17.50
2024-01-09T11:28:32.314Z,16.30
2024-01-09T11:29:32.608Z,17.00
2024-01-09T11:30:36.881Z,16.80
2024-01-09T11:31:34.200Z,16.40
2024-01-09T11:32:33.577Z,14.90
2024-01-09T11:33:34.379Z,14.50
2024-01-09T11:34:34.124Z,14.50
2024-01-09T11:35:34.434Z,14.10
2024-01-09T11:36:35.125Z,13.20
2024-01-09T11:37:34.949Z,12.50
2024-01-09T11:38:35.321Z,11.80
2024-01-09T11:39:35.505Z,13.10
2024-01-09T11:40:35.786Z,11.30
2024-01-09T11:41:36.099Z,11.20
2024-01-09T11:42:36.324Z,11.70
2024-01-09T11:43:36.618Z,12.80
2024-01-09T11:44:36.905Z,13.10
2024-01-09T11:45:37.101Z,14.20
2024-01-09T11:46:37.759Z,14.30
2024-01-09T11:47:37.811Z,13.50
2024-01-09T11:48:38.154Z,14.90
2024-01-09T11:49:38.447Z,14.20
2024-01-09T11:50:38.515Z,15.10
2024-01-09T11:51:38.788Z,14.90
2024-01-09T11:52:39.068Z,14.40
2024-01-09T11:53:39.344Z,13.80
2024-01-09T11:54:39.569Z,13.10
2024-01-09T11:55:39.818Z,13.60
2024-01-09T11:56:40.181Z,13.70
2024-01-09T11:57:40.446Z,14.50
2024-01-09T11:58:40.714Z,14.30
2024-01-09T11:59:41.156Z,13.20
2024-01-09T12:00:41.306Z,12.30
2024-01-09T12:01:41.536Z,13.50
2024-01-09T12:02:41.866Z,14.10
2024-01-09T12:03:42.044Z,14.90
2024-01-09T12:04:42.381Z,14.20
2024-01-09T12:05:42.627Z,15.00
2024-01-09T12:06:44.689Z,16.80
2024-01-09T12:07:43.241Z,15.10
2024-01-09T12:08:43.373Z,12.60
2024-01-09T12:09:43.681Z,14.60
2024-01-09T12:10:43.927Z,13.50
2024-01-09T12:11:44.212Z,14.60
2024-01-09T12:12:44.436Z,15.30
2024-01-09T12:13:44.729Z,15.20
2024-01-09T12:14:45.006Z,15.60
2024-01-09T12:15:45.291Z,16.70
2024-01-09T12:16:45.587Z,17.60
2024-01-09T12:17:46.070Z,16.70
2024-01-09T12:18:46.234Z,16.90
2024-01-09T12:19:46.386Z,15.90
2024-01-09T12:20:46.653Z,14.00
2024-01-09T12:21:46.956Z,13.60
2024-01-09T12:22:47.201Z,14.70
2024-01-09T12:24:02.843Z,15.30
2024-01-09T12:24:48.770Z,14.70
2024-01-09T12:25:48.016Z,16.10
2024-01-09T12:26:48.444Z,14.50
2024-01-09T12:27:48.580Z,15.00
2024-01-09T12:28:48.861Z,18.30
2024-01-09T12:29:49.155Z,15.40
2024-01-09T12:30:49.447Z,16.40
2024-01-09T12:31:49.767Z,15.20
2024-01-09T12:32:50.127Z,14.50
2024-01-09T12:33:50.517Z,15.30
2024-01-09T12:34:50.667Z,16.40
2024-01-09T12:35:50.817Z,14.50
2024-01-09T12:36:51.028Z,17.60
2024-01-09T12:37:51.319Z,18.00
2024-01-09T12:38:51.614Z,24.70
2024-01-09T12:39:51.872Z,29.30
2024-01-09T12:40:52.321Z,26.30
2024-01-09T12:41:52.482Z,22.20
2024-01-09T12:42:52.756Z,19.80
2024-01-09T12:43:53.150Z,16.90
2024-01-09T12:44:53.614Z,16.40
2024-01-09T12:45:53.541Z,17.90
2024-01-09T12:46:53.821Z,17.90
2024-01-09T12:47:54.147Z,18.40
2024-01-09T12:48:54.461Z,17.20
2024-01-09T12:50:02.807Z,17.20
2024-01-09T12:50:55.852Z,16.90
2024-01-09T12:51:55.162Z,22.40
2024-01-09T12:52:55.406Z,20.60
2024-01-09T12:53:55.894Z,18.00
2024-01-09T12:54:56.328Z,18.50
2024-01-09T12:55:56.305Z,15.50
2024-01-09T12:56:56.520Z,15.20
2024-01-09T12:57:56.844Z,14.90
2024-01-09T12:58:57.230Z,14.50
2024-01-09T12:59:57.603Z,13.70
2024-01-09T13:00:57.763Z,12.80